Flight Track Log - Related Links

Times and Time Zones

All times are in EDT time to prevent confusion due to time zone crossing. See the N65TH flight status page for this flight to view local times or setup timezone preferences in your user account.

Time Position Orientation Groundspeed Altitude Reporting Facility
EDT Latitude Longitude Course Direction KTS MPH feet Rate Location/Type
Fri 03:35:02 PM 41.8667 -88.2667 199° South 78 90 2,200  Level Chicago TRACON
Fri 03:36:02 PM 41.8500 -88.2667 180° South 83 96 3,000 850 Climbing Chicago TRACON
Fri 03:37:02 PM 41.8333 -88.2667 180° South 87 100 3,900 800 Climbing Chicago TRACON
Fri 03:38:02 PM 41.8000 -88.2500 160° South 88 101 4,600 550 Climbing Chicago TRACON
Fri 03:39:02 PM 41.7833 -88.2167 124° Southeast 124 143 5,000 182 Climbing Chicago TRACON
Fri 03:40:14 PM 41.7667 -88.1667 114° Southeast 149 171 5,000  Level Chicago TRACON
Fri 03:41:09 PM 41.7333 -88.1333 143° Southeast 132 152 5,000 261 Level Chicago TRACON
Fri 03:42:09 PM 41.7167 -88.1167 143° Southeast 120 138 5,500 619 Climbing Chicago TRACON
Fri 03:43:15 PM 41.6833 -88.0833 143° Southeast 98 113 6,300 667 Climbing Chicago TRACON
Fri 03:44:15 PM 41.6667 -88.0667 143° Southeast 89 102 6,900 368 Climbing Chicago TRACON
Fri 03:45:09 PM 41.6333 -88.0500 160° South 125 144 7,000 86 Climbing Chicago TRACON
Fri 03:45:25 PM 41.6317 -88.0547 245° Southwest 105 121 7,000  Level Chicago Center
Fri 03:46:28 PM 41.5914 -88.0253 151° Southeast 132 152 7,000  Level Chicago Center
Fri 03:47:30 PM 41.5583 -88.0008 151° Southeast 136 157 7,000 -48 Level Chicago Center
Fri 03:48:32 PM 41.5244 -87.9775 153° Southeast 136 157 6,900 -48 Descending Chicago Center
Fri 03:49:34 PM 41.4911 -87.9517 150° Southeast 138 159 6,900  Level Chicago Center
Fri 03:50:36 PM 41.4572 -87.9281 152° Southeast 137 158 6,900  Level Chicago Center
Fri 03:51:38 PM 41.4236 -87.9036 151° Southeast 137 158 6,900  Level Chicago Center
Fri 03:52:40 PM 41.3900 -87.8786 151° Southeast 137 158 6,900  Level Chicago Center
Fri 03:53:42 PM 41.3486 -87.8486 151° Southeast 140 161 6,900  Level Chicago Center
Fri 03:54:44 PM 41.3153 -87.8244 151° Southeast 139 160 6,900  Level Chicago Center
Fri 03:55:46 PM 41.2814 -87.7997 151° Southeast 138 159 6,900  Level Chicago Center
Fri 03:56:48 PM 41.2725 -87.7494 103° East 151 174 6,900  Level Chicago Center
Fri 03:57:50 PM 41.2750 -87.6906 87° East 156 180 6,900  Level Chicago Center
Fri 03:58:52 PM 41.2792 -87.6206 85° East 159 183 6,900  Level Chicago Center
Fri 03:59:55 PM 41.2814 -87.5614 87° East 161 185 6,900  Level Chicago Center
Fri 04:00:57 PM 41.2844 -87.5014 86° East 163 188 6,900  Level Chicago Center
Fri 04:01:59 PM 41.2869 -87.4425 87° East 162 186 6,900  Level Chicago Center
Fri 04:03:01 PM 41.2900 -87.3839 86° East 161 185 6,900  Level Chicago Center
Fri 04:04:03 PM 41.2931 -87.3144 87° East 159 183 6,900  Level Chicago Center
Fri 04:05:05 PM 41.2964 -87.2564 86° East 159 183 6,900  Level Chicago Center
Fri 04:06:07 PM 41.2983 -87.1992 87° East 157 181 6,900  Level Chicago Center
Fri 04:07:09 PM 41.2981 -87.1403 90° East 160 184 6,900  Level Chicago Center
Fri 04:08:11 PM 41.3261 -87.0933 51° Northeast 162 186 6,900 48 Level Chicago Center
Fri 04:09:13 PM 41.3639 -87.0428 45° Northeast 164 189 7,000 48 Climbing Chicago Center
Fri 04:10:15 PM 41.3994 -87.0011 41° Northeast 167 192 7,000  Level Chicago Center
Fri 04:11:17 PM 41.4328 -86.9600 43° Northeast 166 191 7,000  Level Chicago Center
Fri 04:12:19 PM 41.4658 -86.9178 44° Northeast 165 190 7,000 -240 Level Chicago Center
Fri 04:13:22 PM 41.5011 -86.8725 44° Northeast 172 198 6,500 -528 Descending Chicago Center
Fri 04:14:24 PM 41.5397 -86.8253 42° Northeast 183 211 5,900 -677 Descending Chicago Center
Fri 04:15:26 PM 41.5869 -86.7706 41° Northeast 187 215 5,100 -435 Descending Chicago Center
Fri 04:16:28 PM 41.6233 -86.7256 43° Northeast 185 213 5,000 -48 Descending Chicago Center
Fri 04:17:30 PM 41.6550 -86.6814 46° Northeast 177 204 5,000  Level Chicago Center
Fri 04:18:32 PM 41.6875 -86.6383 45° Northeast 171 197 5,000  Level Chicago Center
Fri 04:19:34 PM 41.7222 -86.5958 42° Northeast 168 193 5,000 -339 Level Chicago Center
Fri 04:20:36 PM 41.7578 -86.5497 44° Northeast 173 199 4,300 -774 Descending Chicago Center
Fri 04:21:38 PM 41.7997 -86.4975 43° Northeast 173 199 3,400 -774 Descending Chicago Center
Fri 04:22:40 PM 41.8347 -86.4564 41° Northeast 171 197 2,700 -484 Descending Chicago Center
Fri 04:23:42 PM 41.8686 -86.4197 39° Northeast 165 190 2,400 -145 Descending Chicago Center
Fri 04:24:44 PM 41.8794 -86.3719 73° East 147 169 2,400  Level Chicago Center
Fri 04:25:46 PM 41.8681 -86.3361 113° Southeast 130 150 2,400 -48 Level Chicago Center
Fri 04:26:48 PM 41.8397 -86.3203 157° South 120 138 2,300 -242 Descending Chicago Center
Fri 04:27:50 PM 41.8031 -86.3147 174° South 112 129 1,900 -144 Descending Chicago Center
Fri 04:28:53 PM 41.7731 -86.3150 180° South 110 127 2,000 -144 Climbing Chicago Center
Fri 04:29:55 PM 41.7481 -86.3200 188° South 102 117 1,600 -387 Descending Chicago Center
Fri 04:30:57 PM 41.7211 -86.3214 182° South 98 113 1,200 121 Descending Chicago Center
Fri 04:32:00 PM 41.7626 -86.3101 11° North  Level FlightAware Approximate
Fri 04:33:13 PM 41.6892 -86.3008 11° North 83 96 2,000  Level Chicago Center
Fri 04:34:15 PM 41.6931 -86.2614 82° East 105 121 2,800 871 Climbing Chicago Center
Fri 04:35:17 PM 41.7125 -86.2264 53° Northeast 108 124 3,800 823 Climbing Chicago Center
Fri 04:36:19 PM 41.7356 -86.1947 46° Northeast 113 130 4,500 774 Climbing Chicago Center
Fri 04:37:21 PM 41.7567 -86.1597 51° Northeast 118 136 5,400 768 Climbing Chicago Center
Fri 04:38:24 PM 41.7778 -86.1250 51° Northeast 120 138 6,100 720 Climbing Chicago Center
Fri 04:39:26 PM 41.8028 -86.0825 52° Northeast 121 139 6,900 435 Climbing Chicago Center
Fri 04:40:28 PM 41.8264 -86.0431 51° Northeast 130 150 7,000 48 Climbing Chicago Center
Fri 04:41:30 PM 41.8553 -85.9967 50° Northeast 154 177 7,000  Level Chicago Center
Fri 04:42:32 PM 41.8847 -85.9486 51° Northeast 164 189 7,000  Level Chicago Center
Fri 04:43:34 PM 41.9142 -85.8997 51° Northeast 167 192 7,000  Level Chicago Center
Fri 04:44:36 PM 41.9442 -85.8514 50° Northeast 168 193 7,000  Level Chicago Center
Fri 04:45:38 PM 41.9800 -85.7942 50° Northeast 167 192 7,000  Level Chicago Center
Fri 04:46:40 PM 42.0108 -85.7458 49° Northeast 169 194 7,000  Level Chicago Center
Fri 04:47:42 PM 42.0486 -85.7086 36° Northeast 169 194 7,000  Level Chicago Center
Fri 04:48:44 PM 42.0856 -85.6717 37° Northeast 166 191 7,000  Level Chicago Center
Fri 04:49:46 PM 42.1211 -85.6350 37° Northeast 164 189 7,000  Level Chicago Center
Fri 04:50:48 PM 42.1619 -85.5942 37° Northeast 165 190 7,000  Level Chicago Center
Fri 04:51:51 PM 42.1953 -85.5603 37° Northeast 165 190 7,000  Level Chicago Center
Fri 04:52:53 PM 42.2408 -85.5142 37° Northeast 169 194 7,000  Level Chicago Center
Fri 04:53:55 PM 42.2728 -85.4800 38° Northeast 167 192 7,000 -145 Level Chicago Center
Fri 04:54:57 PM 42.3169 -85.4367 36° Northeast 165 190 6,700 -484 Descending Chicago Center
Fri 04:55:59 PM 42.3564 -85.3967 37° Northeast 173 199 6,000 -672 Descending Chicago Center
Fri 04:57:02 PM 42.3953 -85.3556 38° Northeast 176 203 5,300 -677 Descending Chicago Center
Fri 04:58:03 PM 42.4317 -85.3178 37° Northeast 171 197 4,600 -634 Descending Chicago Center
Fri 04:59:05 PM 42.4653 -85.2831 37° Northeast 158 182 4,000 -290 Descending Chicago Center
Fri 05:00:07 PM 42.4969 -85.2517 36° Northeast 147 169 4,000  Level Chicago Center
Fri 05:01:09 PM 42.5294 -85.2064 46° Northeast 145 167 4,000  Level Chicago Center
Fri 05:02:11 PM 42.5092 -85.1697 127° Southeast 125 144 4,000 -145 Level Chicago Center
Fri 05:03:13 PM 42.4850 -85.1381 136° Southeast 122 140 3,700 -484 Descending Chicago Center
Fri 05:04:15 PM 42.4650 -85.1028 128° Southeast 119 137 3,000 -336 Descending Chicago Center
Fri 05:05:18 PM 42.4417 -85.0883 155° Southeast 120 138 3,000 -288 Level Chicago Center
Fri 05:06:20 PM 42.4158 -85.1186 221° Southwest 108 124 2,400 -387 Descending Chicago Center
Fri 05:07:22 PM 42.3947 -85.1444 222° Southwest 110 127 2,200 -97 Descending Chicago Center
Fri 05:08:24 PM 42.3756 -85.1686 223° Southwest 103 119 2,200  Level Chicago Center
Fri 05:09:26 PM 42.3564 -85.1953 226° Southwest 100 115 2,200 -290 Level Chicago Center
Fri 05:10:28 PM 42.3347 -85.2217 222° Southwest 99 114 1,600 -581 Descending Chicago Center

Login

Don't have an account? Register now (free) for customized features, flight alerts, and more!